sensor_id;sensor_type;location;lat;lon;timestamp;P1;durP1;ratioP1;P2;durP2;ratioP2
62616;SDS011;62539;51.190;6.808;2022-10-16T00:00:41;2.97;;;1.80;;
62616;SDS011;62539;51.190;6.808;2022-10-16T00:03:07;3.60;;;1.50;;
62616;SDS011;62539;51.190;6.808;2022-10-16T00:05:38;3.22;;;1.73;;
62616;SDS011;62539;51.190;6.808;2022-10-16T00:08:06;2.55;;;1.45;;
62616;SDS011;62539;51.190;6.808;2022-10-16T00:10:34;3.45;;;1.60;;
62616;SDS011;62539;51.190;6.808;2022-10-16T00:13:00;4.13;;;1.70;;
62616;SDS011;62539;51.190;6.808;2022-10-16T00:15:25;3.63;;;1.52;;
62616;SDS011;62539;51.190;6.808;2022-10-16T00:17:51;3.80;;;1.60;;
62616;SDS011;62539;51.190;6.808;2022-10-16T00:20:16;2.10;;;1.30;;
62616;SDS011;62539;51.190;6.808;2022-10-16T00:22:42;2.95;;;1.50;;
62616;SDS011;62539;51.190;6.808;2022-10-16T00:25:07;4.40;;;1.42;;
62616;SDS011;62539;51.190;6.808;2022-10-16T00:27:33;3.00;;;1.45;;
62616;SDS011;62539;51.190;6.808;2022-10-16T00:29:59;2.72;;;1.52;;
62616;SDS011;62539;51.190;6.808;2022-10-16T00:32:24;3.70;;;1.60;;
62616;SDS011;62539;51.190;6.808;2022-10-16T00:34:50;3.33;;;1.42;;
62616;SDS011;62539;51.190;6.808;2022-10-16T00:37:15;2.53;;;1.30;;
62616;SDS011;62539;51.190;6.808;2022-10-16T00:39:40;3.30;;;1.50;;
62616;SDS011;62539;51.190;6.808;2022-10-16T00:42:06;3.65;;;1.55;;
62616;SDS011;62539;51.190;6.808;2022-10-16T00:47:13;2.38;;;1.25;;
62616;SDS011;62539;51.190;6.808;2022-10-16T00:49:46;2.25;;;1.38;;
62616;SDS011;62539;51.190;6.808;2022-10-16T00:52:16;3.75;;;1.20;;
62616;SDS011;62539;51.190;6.808;2022-10-16T00:54:42;2.25;;;1.50;;
62616;SDS011;62539;51.190;6.808;2022-10-16T00:57:10;2.28;;;1.48;;
62616;SDS011;62539;51.190;6.808;2022-10-16T00:59:37;2.13;;;1.38;;
62616;SDS011;62539;51.190;6.808;2022-10-16T01:02:07;2.72;;;1.60;;
62616;SDS011;62539;51.190;6.808;2022-10-16T01:04:37;2.05;;;1.33;;
62616;SDS011;62539;51.190;6.808;2022-10-16T01:07:26;2.53;;;1.52;;
62616;SDS011;62539;51.190;6.808;2022-10-16T01:16:13;5.25;;;1.40;;
62616;SDS011;62539;51.190;6.808;2022-10-16T01:19:00;2.83;;;1.27;;
62616;SDS011;62539;51.190;6.808;2022-10-16T01:21:48;2.35;;;1.33;;
62616;SDS011;62539;51.190;6.808;2022-10-16T01:27:22;2.80;;;1.20;;
62616;SDS011;62539;51.190;6.808;2022-10-16T01:29:59;3.13;;;1.38;;
62616;SDS011;62539;51.190;6.808;2022-10-16T01:32:45;1.88;;;1.20;;
62616;SDS011;62539;51.190;6.808;2022-10-16T01:35:34;1.90;;;1.33;;
62616;SDS011;62539;51.190;6.808;2022-10-16T01:38:19;2.65;;;1.23;;
62616;SDS011;62539;51.190;6.808;2022-10-16T01:40:56;1.88;;;1.25;;
62616;SDS011;62539;51.190;6.808;2022-10-16T01:43:35;3.60;;;1.60;;
62616;SDS011;62539;51.190;6.808;2022-10-16T01:46:07;1.92;;;1.20;;
62616;SDS011;62539;51.190;6.808;2022-10-16T01:48:35;2.95;;;1.52;;
62616;SDS011;62539;51.190;6.808;2022-10-16T01:51:06;1.67;;;1.10;;
62616;SDS011;62539;51.190;6.808;2022-10-16T01:53:37;2.92;;;1.13;;
62616;SDS011;62539;51.190;6.808;2022-10-16T01:56:06;1.52;;;1.10;;
62616;SDS011;62539;51.190;6.808;2022-10-16T01:58:38;1.25;;;1.10;;
62616;SDS011;62539;51.190;6.808;2022-10-16T02:01:11;2.67;;;1.20;;
62616;SDS011;62539;51.190;6.808;2022-10-16T02:03:42;1.65;;;1.08;;
62616;SDS011;62539;51.190;6.808;2022-10-16T02:06:11;4.53;;;1.50;;
62616;SDS011;62539;51.190;6.808;2022-10-16T02:08:37;2.08;;;1.23;;
62616;SDS011;62539;51.190;6.808;2022-10-16T02:11:05;2.22;;;1.20;;
62616;SDS011;62539;51.190;6.808;2022-10-16T02:13:36;3.20;;;1.50;;
62616;SDS011;62539;51.190;6.808;2022-10-16T02:16:15;2.42;;;1.08;;
62616;SDS011;62539;51.190;6.808;2022-10-16T02:18:40;1.58;;;1.20;;
62616;SDS011;62539;51.190;6.808;2022-10-16T02:21:16;1.50;;;1.20;;
62616;SDS011;62539;51.190;6.808;2022-10-16T02:26:51;1.88;;;1.20;;
62616;SDS011;62539;51.190;6.808;2022-10-16T02:29:28;1.88;;;1.30;;
62616;SDS011;62539;51.190;6.808;2022-10-16T02:31:55;1.75;;;1.33;;
62616;SDS011;62539;51.190;6.808;2022-10-16T02:34:29;2.05;;;1.15;;
62616;SDS011;62539;51.190;6.808;2022-10-16T02:36:58;1.75;;;1.15;;
62616;SDS011;62539;51.190;6.808;2022-10-16T02:39:28;2.37;;;1.27;;
62616;SDS011;62539;51.190;6.808;2022-10-16T02:41:54;3.05;;;1.17;;
62616;SDS011;62539;51.190;6.808;2022-10-16T02:44:20;1.73;;;0.90;;
62616;SDS011;62539;51.190;6.808;2022-10-16T02:46:45;2.75;;;1.23;;
62616;SDS011;62539;51.190;6.808;2022-10-16T02:49:11;1.55;;;1.08;;
62616;SDS011;62539;51.190;6.808;2022-10-16T02:51:36;1.38;;;1.10;;
62616;SDS011;62539;51.190;6.808;2022-10-16T02:54:02;2.80;;;1.30;;
62616;SDS011;62539;51.190;6.808;2022-10-16T02:56:28;1.50;;;1.00;;
62616;SDS011;62539;51.190;6.808;2022-10-16T02:58:54;2.97;;;0.93;;
62616;SDS011;62539;51.190;6.808;2022-10-16T03:01:20;1.67;;;1.10;;
62616;SDS011;62539;51.190;6.808;2022-10-16T03:03:46;1.90;;;1.17;;
62616;SDS011;62539;51.190;6.808;2022-10-16T03:06:11;1.38;;;1.00;;
62616;SDS011;62539;51.190;6.808;2022-10-16T03:08:36;1.75;;;1.20;;
62616;SDS011;62539;51.190;6.808;2022-10-16T03:11:02;2.35;;;1.30;;
62616;SDS011;62539;51.190;6.808;2022-10-16T03:13:27;1.65;;;1.00;;
62616;SDS011;62539;51.190;6.808;2022-10-16T03:15:53;1.90;;;0.98;;
62616;SDS011;62539;51.190;6.808;2022-10-16T03:18:18;1.38;;;1.00;;
62616;SDS011;62539;51.190;6.808;2022-10-16T03:20:44;1.52;;;1.00;;
62616;SDS011;62539;51.190;6.808;2022-10-16T03:23:09;1.17;;;0.90;;
62616;SDS011;62539;51.190;6.808;2022-10-16T03:25:35;1.73;;;1.20;;
62616;SDS011;62539;51.190;6.808;2022-10-16T03:28:00;1.30;;;1.02;;
62616;SDS011;62539;51.190;6.808;2022-10-16T03:30:26;1.95;;;1.20;;
62616;SDS011;62539;51.190;6.808;2022-10-16T03:32:52;2.42;;;0.80;;
62616;SDS011;62539;51.190;6.808;2022-10-16T03:35:21;2.05;;;1.27;;
62616;SDS011;62539;51.190;6.808;2022-10-16T03:37:47;1.88;;;1.05;;
62616;SDS011;62539;51.190;6.808;2022-10-16T03:40:13;1.38;;;1.10;;
62616;SDS011;62539;51.190;6.808;2022-10-16T03:42:40;1.38;;;1.02;;
62616;SDS011;62539;51.190;6.808;2022-10-16T03:45:06;2.03;;;1.02;;
62616;SDS011;62539;51.190;6.808;2022-10-16T03:47:32;1.63;;;1.10;;
62616;SDS011;62539;51.190;6.808;2022-10-16T03:49:58;1.30;;;0.90;;
62616;SDS011;62539;51.190;6.808;2022-10-16T03:52:24;1.85;;;1.10;;
62616;SDS011;62539;51.190;6.808;2022-10-16T03:54:50;1.10;;;0.90;;
62616;SDS011;62539;51.190;6.808;2022-10-16T03:57:15;2.08;;;0.75;;
62616;SDS011;62539;51.190;6.808;2022-10-16T03:59:41;1.50;;;1.00;;
62616;SDS011;62539;51.190;6.808;2022-10-16T04:02:06;1.33;;;1.10;;
62616;SDS011;62539;51.190;6.808;2022-10-16T04:04:32;0.73;;;0.73;;
62616;SDS011;62539;51.190;6.808;2022-10-16T04:06:57;0.93;;;0.80;;
62616;SDS011;62539;51.190;6.808;2022-10-16T04:09:22;1.60;;;1.13;;
62616;SDS011;62539;51.190;6.808;2022-10-16T04:11:48;1.45;;;1.00;;
62616;SDS011;62539;51.190;6.808;2022-10-16T04:14:13;1.58;;;0.90;;
62616;SDS011;62539;51.190;6.808;2022-10-16T04:16:39;1.80;;;1.10;;
62616;SDS011;62539;51.190;6.808;2022-10-16T04:19:04;1.50;;;1.08;;
62616;SDS011;62539;51.190;6.808;2022-10-16T04:21:30;2.22;;;1.10;;
62616;SDS011;62539;51.190;6.808;2022-10-16T04:23:55;3.78;;;1.05;;
62616;SDS011;62539;51.190;6.808;2022-10-16T04:26:20;1.70;;;0.80;;
62616;SDS011;62539;51.190;6.808;2022-10-16T04:28:46;2.13;;;0.90;;
62616;SDS011;62539;51.190;6.808;2022-10-16T04:31:11;1.55;;;1.02;;
62616;SDS011;62539;51.190;6.808;2022-10-16T04:33:36;1.00;;;0.85;;
62616;SDS011;62539;51.190;6.808;2022-10-16T04:36:02;3.15;;;1.20;;
62616;SDS011;62539;51.190;6.808;2022-10-16T04:38:29;1.50;;;1.00;;
62616;SDS011;62539;51.190;6.808;2022-10-16T04:40:55;0.90;;;0.90;;
62616;SDS011;62539;51.190;6.808;2022-10-16T04:43:20;4.10;;;0.93;;
62616;SDS011;62539;51.190;6.808;2022-10-16T04:45:46;2.35;;;1.05;;
62616;SDS011;62539;51.190;6.808;2022-10-16T04:48:12;1.20;;;0.90;;
62616;SDS011;62539;51.190;6.808;2022-10-16T04:50:37;3.03;;;1.20;;
62616;SDS011;62539;51.190;6.808;2022-10-16T04:53:03;1.10;;;0.88;;
62616;SDS011;62539;51.190;6.808;2022-10-16T04:55:28;0.85;;;0.85;;
62616;SDS011;62539;51.190;6.808;2022-10-16T04:57:53;1.23;;;0.98;;
62616;SDS011;62539;51.190;6.808;2022-10-16T05:00:19;1.13;;;1.00;;
62616;SDS011;62539;51.190;6.808;2022-10-16T05:02:44;1.67;;;1.00;;
62616;SDS011;62539;51.190;6.808;2022-10-16T05:05:10;1.17;;;1.08;;
62616;SDS011;62539;51.190;6.808;2022-10-16T05:07:36;1.17;;;0.90;;
62616;SDS011;62539;51.190;6.808;2022-10-16T05:10:01;1.15;;;1.00;;
62616;SDS011;62539;51.190;6.808;2022-10-16T05:12:27;1.27;;;0.90;;
62616;SDS011;62539;51.190;6.808;2022-10-16T05:14:52;1.10;;;1.00;;
62616;SDS011;62539;51.190;6.808;2022-10-16T05:17:23;0.70;;;0.70;;
62616;SDS011;62539;51.190;6.808;2022-10-16T05:19:49;1.27;;;0.98;;
62616;SDS011;62539;51.190;6.808;2022-10-16T05:22:15;1.08;;;0.98;;
62616;SDS011;62539;51.190;6.808;2022-10-16T05:24:40;1.13;;;0.90;;
62616;SDS011;62539;51.190;6.808;2022-10-16T05:27:05;1.15;;;0.80;;
62616;SDS011;62539;51.190;6.808;2022-10-16T05:29:31;1.40;;;1.00;;
62616;SDS011;62539;51.190;6.808;2022-10-16T05:31:56;1.02;;;0.82;;
62616;SDS011;62539;51.190;6.808;2022-10-16T05:34:22;0.95;;;0.80;;
62616;SDS011;62539;51.190;6.808;2022-10-16T05:36:47;1.48;;;1.05;;
62616;SDS011;62539;51.190;6.808;2022-10-16T05:39:13;0.80;;;0.80;;
62616;SDS011;62539;51.190;6.808;2022-10-16T05:41:40;1.70;;;0.93;;
62616;SDS011;62539;51.190;6.808;2022-10-16T05:44:05;0.80;;;0.73;;
62616;SDS011;62539;51.190;6.808;2022-10-16T05:46:32;1.00;;;0.80;;
62616;SDS011;62539;51.190;6.808;2022-10-16T05:48:57;0.98;;;0.80;;
62616;SDS011;62539;51.190;6.808;2022-10-16T05:51:23;1.38;;;0.80;;
62616;SDS011;62539;51.190;6.808;2022-10-16T05:53:49;0.82;;;0.80;;
62616;SDS011;62539;51.190;6.808;2022-10-16T05:56:14;1.38;;;0.90;;
62616;SDS011;62539;51.190;6.808;2022-10-16T05:58:40;0.88;;;0.77;;
62616;SDS011;62539;51.190;6.808;2022-10-16T06:01:08;0.98;;;0.75;;
62616;SDS011;62539;51.190;6.808;2022-10-16T06:03:37;0.90;;;0.90;;
62616;SDS011;62539;51.190;6.808;2022-10-16T06:06:07;0.77;;;0.75;;
62616;SDS011;62539;51.190;6.808;2022-10-16T06:08:37;1.70;;;0.90;;
62616;SDS011;62539;51.190;6.808;2022-10-16T06:11:04;0.85;;;0.70;;
62616;SDS011;62539;51.190;6.808;2022-10-16T06:13:32;1.95;;;0.90;;
62616;SDS011;62539;51.190;6.808;2022-10-16T06:15:58;1.75;;;0.90;;
62616;SDS011;62539;51.190;6.808;2022-10-16T06:18:25;6.88;;;0.80;;
62616;SDS011;62539;51.190;6.808;2022-10-16T06:20:53;1.00;;;0.80;;
62616;SDS011;62539;51.190;6.808;2022-10-16T06:23:19;0.82;;;0.75;;
62616;SDS011;62539;51.190;6.808;2022-10-16T06:25:45;3.25;;;0.95;;
62616;SDS011;62539;51.190;6.808;2022-10-16T06:28:10;2.15;;;0.85;;
62616;SDS011;62539;51.190;6.808;2022-10-16T06:30:36;2.00;;;0.75;;
62616;SDS011;62539;51.190;6.808;2022-10-16T06:33:01;0.98;;;0.80;;
62616;SDS011;62539;51.190;6.808;2022-10-16T06:35:27;3.85;;;0.80;;
62616;SDS011;62539;51.190;6.808;2022-10-16T06:37:54;1.27;;;0.93;;
62616;SDS011;62539;51.190;6.808;2022-10-16T06:40:19;1.50;;;0.80;;
62616;SDS011;62539;51.190;6.808;2022-10-16T06:42:45;1.38;;;0.88;;
62616;SDS011;62539;51.190;6.808;2022-10-16T06:45:10;1.00;;;0.90;;
62616;SDS011;62539;51.190;6.808;2022-10-16T06:47:36;1.92;;;0.80;;
62616;SDS011;62539;51.190;6.808;2022-10-16T06:50:02;1.15;;;0.77;;
62616;SDS011;62539;51.190;6.808;2022-10-16T06:52:28;1.25;;;0.85;;
62616;SDS011;62539;51.190;6.808;2022-10-16T06:54:54;2.25;;;0.88;;
62616;SDS011;62539;51.190;6.808;2022-10-16T06:57:19;1.10;;;1.00;;
62616;SDS011;62539;51.190;6.808;2022-10-16T06:59:44;4.25;;;1.00;;
62616;SDS011;62539;51.190;6.808;2022-10-16T07:02:10;2.45;;;0.70;;
62616;SDS011;62539;51.190;6.808;2022-10-16T07:04:35;0.68;;;0.60;;
62616;SDS011;62539;51.190;6.808;2022-10-16T07:07:01;0.95;;;0.80;;
62616;SDS011;62539;51.190;6.808;2022-10-16T07:09:27;0.93;;;0.70;;
62616;SDS011;62539;51.190;6.808;2022-10-16T07:11:53;1.02;;;0.90;;
62616;SDS011;62539;51.190;6.808;2022-10-16T07:14:19;2.60;;;0.60;;
62616;SDS011;62539;51.190;6.808;2022-10-16T07:16:46;1.58;;;0.80;;
62616;SDS011;62539;51.190;6.808;2022-10-16T07:19:13;0.88;;;0.70;;
62616;SDS011;62539;51.190;6.808;2022-10-16T07:21:40;0.98;;;0.60;;
62616;SDS011;62539;51.190;6.808;2022-10-16T07:24:07;1.45;;;0.80;;
62616;SDS011;62539;51.190;6.808;2022-10-16T07:26:42;1.70;;;0.70;;
62616;SDS011;62539;51.190;6.808;2022-10-16T07:29:11;1.65;;;0.90;;
62616;SDS011;62539;51.190;6.808;2022-10-16T07:31:42;1.55;;;0.90;;
62616;SDS011;62539;51.190;6.808;2022-10-16T07:34:08;1.90;;;0.82;;
62616;SDS011;62539;51.190;6.808;2022-10-16T07:36:34;1.52;;;1.15;;
62616;SDS011;62539;51.190;6.808;2022-10-16T07:39:00;1.02;;;0.90;;
62616;SDS011;62539;51.190;6.808;2022-10-16T07:41:25;0.95;;;0.70;;
62616;SDS011;62539;51.190;6.808;2022-10-16T07:43:52;2.65;;;0.60;;
62616;SDS011;62539;51.190;6.808;2022-10-16T07:46:20;1.00;;;0.70;;
62616;SDS011;62539;51.190;6.808;2022-10-16T07:48:47;0.73;;;0.70;;
62616;SDS011;62539;51.190;6.808;2022-10-16T07:51:14;0.80;;;0.68;;
62616;SDS011;62539;51.190;6.808;2022-10-16T07:53:43;1.23;;;0.80;;
62616;SDS011;62539;51.190;6.808;2022-10-16T07:56:08;0.70;;;0.70;;
62616;SDS011;62539;51.190;6.808;2022-10-16T07:58:35;1.88;;;0.80;;
62616;SDS011;62539;51.190;6.808;2022-10-16T08:01:05;13.95;;;0.80;;
62616;SDS011;62539;51.190;6.808;2022-10-16T08:03:34;0.55;;;0.52;;
62616;SDS011;62539;51.190;6.808;2022-10-16T08:05:59;1.10;;;0.57;;
62616;SDS011;62539;51.190;6.808;2022-10-16T08:08:26;1.30;;;0.80;;
62616;SDS011;62539;51.190;6.808;2022-10-16T08:10:52;0.80;;;0.63;;
62616;SDS011;62539;51.190;6.808;2022-10-16T08:13:18;2.30;;;0.80;;
62616;SDS011;62539;51.190;6.808;2022-10-16T08:15:44;0.93;;;0.73;;
62616;SDS011;62539;51.190;6.808;2022-10-16T08:18:11;3.28;;;0.80;;
62616;SDS011;62539;51.190;6.808;2022-10-16T08:20:39;0.60;;;0.50;;
62616;SDS011;62539;51.190;6.808;2022-10-16T08:23:07;1.33;;;0.80;;
62616;SDS011;62539;51.190;6.808;2022-10-16T08:25:35;1.00;;;0.70;;
62616;SDS011;62539;51.190;6.808;2022-10-16T08:28:04;2.15;;;0.70;;
62616;SDS011;62539;51.190;6.808;2022-10-16T08:30:31;4.07;;;0.70;;
62616;SDS011;62539;51.190;6.808;2022-10-16T08:32:57;4.38;;;0.70;;
62616;SDS011;62539;51.190;6.808;2022-10-16T08:35:23;3.60;;;0.88;;
62616;SDS011;62539;51.190;6.808;2022-10-16T08:37:48;2.60;;;0.70;;
62616;SDS011;62539;51.190;6.808;2022-10-16T08:40:24;1.45;;;0.63;;
62616;SDS011;62539;51.190;6.808;2022-10-16T08:43:54;0.60;;;0.60;;
62616;SDS011;62539;51.190;6.808;2022-10-16T08:46:10;1.70;;;0.80;;
62616;SDS011;62539;51.190;6.808;2022-10-16T08:48:49;1.70;;;1.13;;
62616;SDS011;62539;51.190;6.808;2022-10-16T08:51:19;3.85;;;0.60;;
62616;SDS011;62539;51.190;6.808;2022-10-16T08:53:53;1.27;;;0.70;;
62616;SDS011;62539;51.190;6.808;2022-10-16T08:56:22;3.65;;;0.73;;
62616;SDS011;62539;51.190;6.808;2022-10-16T08:58:50;1.50;;;0.85;;
62616;SDS011;62539;51.190;6.808;2022-10-16T09:01:18;7.43;;;2.40;;
62616;SDS011;62539;51.190;6.808;2022-10-16T09:06:56;16.63;;;3.55;;
62616;SDS011;62539;51.190;6.808;2022-10-16T09:09:48;11.18;;;4.15;;
62616;SDS011;62539;51.190;6.808;2022-10-16T09:12:47;11.30;;;3.42;;
62616;SDS011;62539;51.190;6.808;2022-10-16T09:15:25;11.85;;;3.13;;
62616;SDS011;62539;51.190;6.808;2022-10-16T09:18:03;9.05;;;3.78;;
62616;SDS011;62539;51.190;6.808;2022-10-16T09:20:44;8.93;;;3.33;;
62616;SDS011;62539;51.190;6.808;2022-10-16T09:23:28;8.02;;;3.28;;
62616;SDS011;62539;51.190;6.808;2022-10-16T09:25:58;9.98;;;2.83;;
62616;SDS011;62539;51.190;6.808;2022-10-16T09:28:24;8.85;;;2.63;;
62616;SDS011;62539;51.190;6.808;2022-10-16T09:30:51;8.15;;;3.10;;
62616;SDS011;62539;51.190;6.808;2022-10-16T09:33:17;7.72;;;3.00;;
62616;SDS011;62539;51.190;6.808;2022-10-16T09:35:51;6.47;;;2.92;;
62616;SDS011;62539;51.190;6.808;2022-10-16T09:38:34;6.53;;;3.15;;
62616;SDS011;62539;51.190;6.808;2022-10-16T09:48:51;9.48;;;2.90;;
62616;SDS011;62539;51.190;6.808;2022-10-16T09:51:35;8.15;;;2.65;;
62616;SDS011;62539;51.190;6.808;2022-10-16T09:56:32;4.85;;;2.35;;
62616;SDS011;62539;51.190;6.808;2022-10-16T09:59:17;5.25;;;2.30;;
62616;SDS011;62539;51.190;6.808;2022-10-16T10:04:18;3.45;;;1.10;;
62616;SDS011;62539;51.190;6.808;2022-10-16T10:06:47;4.60;;;1.45;;
62616;SDS011;62539;51.190;6.808;2022-10-16T10:12:04;3.75;;;1.30;;
62616;SDS011;62539;51.190;6.808;2022-10-16T10:14:43;3.58;;;1.70;;
62616;SDS011;62539;51.190;6.808;2022-10-16T10:17:17;5.00;;;1.90;;
62616;SDS011;62539;51.190;6.808;2022-10-16T10:19:49;8.52;;;2.00;;
62616;SDS011;62539;51.190;6.808;2022-10-16T10:36:47;3.78;;;1.38;;
62616;SDS011;62539;51.190;6.808;2022-10-16T10:45:11;7.00;;;1.90;;
62616;SDS011;62539;51.190;6.808;2022-10-16T10:50:43;8.90;;;2.45;;
62616;SDS011;62539;51.190;6.808;2022-10-16T10:56:42;6.65;;;1.75;;
62616;SDS011;62539;51.190;6.808;2022-10-16T10:59:37;3.90;;;1.67;;
62616;SDS011;62539;51.190;6.808;2022-10-16T11:02:28;6.65;;;2.03;;
62616;SDS011;62539;51.190;6.808;2022-10-16T11:05:14;5.28;;;1.40;;
62616;SDS011;62539;51.190;6.808;2022-10-16T11:08:03;6.63;;;1.77;;
62616;SDS011;62539;51.190;6.808;2022-10-16T11:10:50;4.20;;;1.80;;
62616;SDS011;62539;51.190;6.808;2022-10-16T11:16:20;4.68;;;1.80;;
62616;SDS011;62539;51.190;6.808;2022-10-16T11:19:03;4.38;;;1.60;;
62616;SDS011;62539;51.190;6.808;2022-10-16T11:25:02;4.35;;;1.48;;
62616;SDS011;62539;51.190;6.808;2022-10-16T11:27:37;3.92;;;1.60;;
62616;SDS011;62539;51.190;6.808;2022-10-16T11:30:14;6.05;;;2.30;;
62616;SDS011;62539;51.190;6.808;2022-10-16T11:41:06;5.57;;;1.55;;
62616;SDS011;62539;51.190;6.808;2022-10-16T11:43:48;4.05;;;1.60;;
62616;SDS011;62539;51.190;6.808;2022-10-16T11:46:27;3.70;;;1.90;;
62616;SDS011;62539;51.190;6.808;2022-10-16T11:52:17;3.60;;;1.65;;
62616;SDS011;62539;51.190;6.808;2022-10-16T11:54:56;2.22;;;1.27;;
62616;SDS011;62539;51.190;6.808;2022-10-16T11:58:06;6.13;;;1.50;;
62616;SDS011;62539;51.190;6.808;2022-10-16T12:01:10;4.18;;;1.50;;
62616;SDS011;62539;51.190;6.808;2022-10-16T12:03:43;3.95;;;1.77;;
62616;SDS011;62539;51.190;6.808;2022-10-16T12:09:14;4.55;;;1.67;;
62616;SDS011;62539;51.190;6.808;2022-10-16T12:11:51;3.80;;;1.60;;
62616;SDS011;62539;51.190;6.808;2022-10-16T12:14:18;4.00;;;1.52;;
62616;SDS011;62539;51.190;6.808;2022-10-16T12:16:56;4.22;;;1.60;;
62616;SDS011;62539;51.190;6.808;2022-10-16T12:19:25;3.65;;;1.50;;
62616;SDS011;62539;51.190;6.808;2022-10-16T12:21:58;4.05;;;1.50;;
62616;SDS011;62539;51.190;6.808;2022-10-16T12:29:56;8.75;;;1.52;;
62616;SDS011;62539;51.190;6.808;2022-10-16T12:32:34;5.78;;;1.60;;
62616;SDS011;62539;51.190;6.808;2022-10-16T12:35:04;8.68;;;1.63;;
62616;SDS011;62539;51.190;6.808;2022-10-16T12:37:42;4.45;;;1.52;;
62616;SDS011;62539;51.190;6.808;2022-10-16T12:40:23;4.93;;;1.33;;
62616;SDS011;62539;51.190;6.808;2022-10-16T12:42:54;2.85;;;1.00;;
62616;SDS011;62539;51.190;6.808;2022-10-16T12:45:28;4.72;;;1.40;;
62616;SDS011;62539;51.190;6.808;2022-10-16T12:47:57;8.68;;;1.58;;
62616;SDS011;62539;51.190;6.808;2022-10-16T12:50:30;7.00;;;1.60;;
62616;SDS011;62539;51.190;6.808;2022-10-16T12:53:00;67.55;;;3.35;;
62616;SDS011;62539;51.190;6.808;2022-10-16T12:55:30;45.72;;;4.05;;
62616;SDS011;62539;51.190;6.808;2022-10-16T12:58:30;47.17;;;2.78;;
62616;SDS011;62539;51.190;6.808;2022-10-16T13:02:05;21.45;;;2.15;;
62616;SDS011;62539;51.190;6.808;2022-10-16T13:13:10;12.60;;;1.42;;
62616;SDS011;62539;51.190;6.808;2022-10-16T13:15:58;13.15;;;1.48;;
62616;SDS011;62539;51.190;6.808;2022-10-16T13:30:18;13.82;;;1.58;;
62616;SDS011;62539;51.190;6.808;2022-10-16T13:32:50;9.95;;;1.63;;
62616;SDS011;62539;51.190;6.808;2022-10-16T13:35:33;8.98;;;1.77;;
62616;SDS011;62539;51.190;6.808;2022-10-16T13:38:04;18.58;;;3.08;;
62616;SDS011;62539;51.190;6.808;2022-10-16T13:48:55;9.07;;;2.17;;
62616;SDS011;62539;51.190;6.808;2022-10-16T13:51:25;8.95;;;1.63;;
62616;SDS011;62539;51.190;6.808;2022-10-16T13:53:54;10.43;;;1.40;;
62616;SDS011;62539;51.190;6.808;2022-10-16T13:56:22;9.77;;;1.80;;
62616;SDS011;62539;51.190;6.808;2022-10-16T13:58:58;10.52;;;1.60;;
62616;SDS011;62539;51.190;6.808;2022-10-16T14:01:43;6.88;;;1.90;;
62616;SDS011;62539;51.190;6.808;2022-10-16T14:04:10;8.77;;;1.60;;
62616;SDS011;62539;51.190;6.808;2022-10-16T14:06:42;9.75;;;1.35;;
62616;SDS011;62539;51.190;6.808;2022-10-16T14:09:16;7.28;;;1.73;;
62616;SDS011;62539;51.190;6.808;2022-10-16T14:11:52;5.40;;;1.60;;
62616;SDS011;62539;51.190;6.808;2022-10-16T14:14:22;4.40;;;1.70;;
62616;SDS011;62539;51.190;6.808;2022-10-16T14:16:50;3.80;;;1.30;;
62616;SDS011;62539;51.190;6.808;2022-10-16T14:19:23;3.47;;;1.60;;
62616;SDS011;62539;51.190;6.808;2022-10-16T14:21:52;3.83;;;1.73;;
62616;SDS011;62539;51.190;6.808;2022-10-16T14:24:34;6.18;;;1.40;;
62616;SDS011;62539;51.190;6.808;2022-10-16T14:27:00;8.80;;;1.50;;
62616;SDS011;62539;51.190;6.808;2022-10-16T14:29:47;3.90;;;1.50;;
62616;SDS011;62539;51.190;6.808;2022-10-16T14:32:21;4.78;;;1.60;;
62616;SDS011;62539;51.190;6.808;2022-10-16T14:34:54;3.97;;;1.38;;
62616;SDS011;62539;51.190;6.808;2022-10-16T14:37:24;9.25;;;1.50;;
62616;SDS011;62539;51.190;6.808;2022-10-16T14:39:53;6.57;;;1.50;;
62616;SDS011;62539;51.190;6.808;2022-10-16T14:42:21;5.50;;;1.40;;
62616;SDS011;62539;51.190;6.808;2022-10-16T14:44:50;3.60;;;1.27;;
62616;SDS011;62539;51.190;6.808;2022-10-16T14:47:20;7.32;;;1.63;;
62616;SDS011;62539;51.190;6.808;2022-10-16T14:49:51;2.63;;;1.10;;
62616;SDS011;62539;51.190;6.808;2022-10-16T14:52:20;2.65;;;1.25;;
62616;SDS011;62539;51.190;6.808;2022-10-16T14:54:50;7.75;;;1.40;;
62616;SDS011;62539;51.190;6.808;2022-10-16T14:57:20;7.15;;;1.67;;
62616;SDS011;62539;51.190;6.808;2022-10-16T14:59:49;4.72;;;1.48;;
62616;SDS011;62539;51.190;6.808;2022-10-16T15:05:05;4.55;;;1.42;;
62616;SDS011;62539;51.190;6.808;2022-10-16T15:07:42;6.28;;;1.45;;
62616;SDS011;62539;51.190;6.808;2022-10-16T15:10:08;3.88;;;1.20;;
62616;SDS011;62539;51.190;6.808;2022-10-16T15:12:34;7.50;;;1.27;;
62616;SDS011;62539;51.190;6.808;2022-10-16T15:14:59;7.60;;;1.55;;
62616;SDS011;62539;51.190;6.808;2022-10-16T15:17:25;3.75;;;1.42;;
62616;SDS011;62539;51.190;6.808;2022-10-16T15:19:50;6.38;;;1.48;;
62616;SDS011;62539;51.190;6.808;2022-10-16T15:22:16;4.40;;;1.48;;
62616;SDS011;62539;51.190;6.808;2022-10-16T15:24:42;4.90;;;1.30;;
62616;SDS011;62539;51.190;6.808;2022-10-16T15:27:07;5.60;;;1.70;;
62616;SDS011;62539;51.190;6.808;2022-10-16T15:29:33;4.25;;;1.30;;
62616;SDS011;62539;51.190;6.808;2022-10-16T15:31:58;3.30;;;1.38;;
62616;SDS011;62539;51.190;6.808;2022-10-16T15:34:23;8.95;;;1.73;;
62616;SDS011;62539;51.190;6.808;2022-10-16T15:36:49;10.02;;;2.47;;
62616;SDS011;62539;51.190;6.808;2022-10-16T15:39:16;5.18;;;1.52;;
62616;SDS011;62539;51.190;6.808;2022-10-16T15:41:46;4.03;;;1.58;;
62616;SDS011;62539;51.190;6.808;2022-10-16T15:44:15;5.60;;;1.20;;
62616;SDS011;62539;51.190;6.808;2022-10-16T15:46:47;3.45;;;1.23;;
62616;SDS011;62539;51.190;6.808;2022-10-16T15:49:13;3.13;;;1.10;;
62616;SDS011;62539;51.190;6.808;2022-10-16T15:51:39;6.32;;;1.55;;
62616;SDS011;62539;51.190;6.808;2022-10-16T15:54:07;1.88;;;1.15;;
62616;SDS011;62539;51.190;6.808;2022-10-16T15:56:33;3.15;;;1.30;;
62616;SDS011;62539;51.190;6.808;2022-10-16T15:58:59;2.33;;;1.40;;
62616;SDS011;62539;51.190;6.808;2022-10-16T16:01:25;4.43;;;1.10;;
62616;SDS011;62539;51.190;6.808;2022-10-16T16:03:52;3.67;;;1.40;;
62616;SDS011;62539;51.190;6.808;2022-10-16T16:06:18;3.80;;;1.35;;
62616;SDS011;62539;51.190;6.808;2022-10-16T16:08:44;4.13;;;1.50;;
62616;SDS011;62539;51.190;6.808;2022-10-16T16:11:10;8.18;;;1.38;;
62616;SDS011;62539;51.190;6.808;2022-10-16T16:13:38;3.47;;;1.20;;
62616;SDS011;62539;51.190;6.808;2022-10-16T16:16:08;3.53;;;1.25;;
62616;SDS011;62539;51.190;6.808;2022-10-16T16:18:39;2.17;;;1.10;;
62616;SDS011;62539;51.190;6.808;2022-10-16T16:21:05;2.03;;;1.02;;
62616;SDS011;62539;51.190;6.808;2022-10-16T16:23:32;4.20;;;1.20;;
62616;SDS011;62539;51.190;6.808;2022-10-16T16:26:22;3.10;;;1.25;;
62616;SDS011;62539;51.190;6.808;2022-10-16T16:28:56;2.13;;;1.40;;
62616;SDS011;62539;51.190;6.808;2022-10-16T16:31:25;1.67;;;1.02;;
62616;SDS011;62539;51.190;6.808;2022-10-16T16:33:53;2.30;;;0.85;;
62616;SDS011;62539;51.190;6.808;2022-10-16T16:36:19;1.83;;;1.20;;
62616;SDS011;62539;51.190;6.808;2022-10-16T16:38:45;4.60;;;1.67;;
62616;SDS011;62539;51.190;6.808;2022-10-16T16:41:12;2.70;;;1.45;;
62616;SDS011;62539;51.190;6.808;2022-10-16T16:43:50;3.53;;;1.20;;
62616;SDS011;62539;51.190;6.808;2022-10-16T16:46:17;1.67;;;1.10;;
62616;SDS011;62539;51.190;6.808;2022-10-16T16:48:44;2.25;;;1.10;;
62616;SDS011;62539;51.190;6.808;2022-10-16T16:51:12;2.65;;;1.48;;
62616;SDS011;62539;51.190;6.808;2022-10-16T16:53:43;3.65;;;1.10;;
62616;SDS011;62539;51.190;6.808;2022-10-16T16:56:12;3.33;;;1.15;;
62616;SDS011;62539;51.190;6.808;2022-10-16T16:58:38;3.25;;;1.55;;
62616;SDS011;62539;51.190;6.808;2022-10-16T17:01:04;2.13;;;1.35;;
62616;SDS011;62539;51.190;6.808;2022-10-16T17:03:31;5.55;;;1.20;;